sensor_id;sensor_type;location;lat;lon;timestamp;pressure;altitude;pressure_sealevel;temperature;humidity
22649;BME280;11491;41.942;24.220;2023-08-07T00:01:01;89393.88;;;16.02;80.29
22649;BME280;11491;41.942;24.220;2023-08-07T00:03:29;89394.66;;;16.06;79.58
22649;BME280;11491;41.942;24.220;2023-08-07T00:05:56;89396.22;;;15.64;81.47
22649;BME280;11491;41.942;24.220;2023-08-07T00:08:23;89394.72;;;15.74;82.15
22649;BME280;11491;41.942;24.220;2023-08-07T00:10:49;89400.47;;;15.80;81.55
22649;BME280;11491;41.942;24.220;2023-08-07T00:13:16;89407.03;;;15.86;80.96
22649;BME280;11491;41.942;24.220;2023-08-07T00:15:43;89403.16;;;15.80;81.09
22649;BME280;11491;41.942;24.220;2023-08-07T00:18:11;89407.81;;;15.83;80.96
22649;BME280;11491;41.942;24.220;2023-08-07T00:20:39;89390.84;;;15.79;80.25
22649;BME280;11491;41.942;24.220;2023-08-07T00:23:05;89408.56;;;15.80;80.38
22649;BME280;11491;41.942;24.220;2023-08-07T00:25:32;89427.03;;;15.85;80.82
22649;BME280;11491;41.942;24.220;2023-08-07T00:28:00;89405.50;;;15.78;80.46
22649;BME280;11491;41.942;24.220;2023-08-07T00:30:27;89424.72;;;15.80;80.39
22649;BME280;11491;41.942;24.220;2023-08-07T00:32:57;89432.03;;;15.72;80.64
22649;BME280;11491;41.942;24.220;2023-08-07T00:35:23;89427.41;;;15.65;79.96
22649;BME280;11491;41.942;24.220;2023-08-07T00:37:51;89427.00;;;15.60;80.49
22649;BME280;11491;41.942;24.220;2023-08-07T00:40:18;89422.41;;;15.53;80.60
22649;BME280;11491;41.942;24.220;2023-08-07T00:42:45;89432.41;;;15.49;81.40
22649;BME280;11491;41.942;24.220;2023-08-07T00:45:12;89433.94;;;15.43;80.76
22649;BME280;11491;41.942;24.220;2023-08-07T00:47:39;89425.47;;;15.34;81.17
22649;BME280;11491;41.942;24.220;2023-08-07T00:50:07;89430.06;;;15.22;82.12
22649;BME280;11491;41.942;24.220;2023-08-07T00:52:34;89432.34;;;15.20;82.69
22649;BME280;11491;41.942;24.220;2023-08-07T00:55:04;89426.97;;;15.20;82.58
22649;BME280;11491;41.942;24.220;2023-08-07T00:57:30;89413.09;;;14.97;82.84
22649;BME280;11491;41.942;24.220;2023-08-07T00:59:58;89440.81;;;15.22;82.41
22649;BME280;11491;41.942;24.220;2023-08-07T01:02:26;89430.03;;;15.12;82.16
22649;BME280;11491;41.942;24.220;2023-08-07T01:04:52;89430.03;;;15.15;81.86
22649;BME280;11491;41.942;24.220;2023-08-07T01:07:19;89433.09;;;15.10;81.97
22649;BME280;11491;41.942;24.220;2023-08-07T01:09:46;89436.94;;;15.02;82.22
22649;BME280;11491;41.942;24.220;2023-08-07T01:12:17;89435.78;;;14.96;82.59
22649;BME280;11491;41.942;24.220;2023-08-07T01:14:52;89433.84;;;14.96;82.25
22649;BME280;11491;41.942;24.220;2023-08-07T01:17:22;89436.91;;;14.88;82.65
22649;BME280;11491;41.942;24.220;2023-08-07T01:19:50;89435.38;;;14.94;82.58
22649;BME280;11491;41.942;24.220;2023-08-07T01:22:19;89431.16;;;15.00;81.96
22649;BME280;11491;41.942;24.220;2023-08-07T01:24:47;89426.16;;;14.95;81.03
22649;BME280;11491;41.942;24.220;2023-08-07T01:27:33;89435.28;;;14.65;82.45
22649;BME280;11491;41.942;24.220;2023-08-07T01:30:11;89430.34;;;14.74;81.59
22649;BME280;11491;41.942;24.220;2023-08-07T01:32:54;89426.44;;;14.68;81.84
22649;BME280;11491;41.942;24.220;2023-08-07T01:35:23;89442.19;;;14.59;81.80
22649;BME280;11491;41.942;24.220;2023-08-07T01:37:56;89449.72;;;14.35;82.89
22649;BME280;11491;41.942;24.220;2023-08-07T01:40:24;89451.13;;;14.08;84.44
22649;BME280;11491;41.942;24.220;2023-08-07T01:42:51;89454.19;;;14.10;84.81
22649;BME280;11491;41.942;24.220;2023-08-07T01:45:22;89460.34;;;14.07;85.26
22649;BME280;11491;41.942;24.220;2023-08-07T01:47:49;89461.50;;;14.13;85.36
22649;BME280;11491;41.942;24.220;2023-08-07T01:50:17;89464.28;;;14.27;83.98
22649;BME280;11491;41.942;24.220;2023-08-07T01:52:44;89460.38;;;14.14;83.80
22649;BME280;11491;41.942;24.220;2023-08-07T01:55:12;89468.00;;;14.05;84.41
22649;BME280;11491;41.942;24.220;2023-08-07T01:57:39;89467.09;;;13.86;85.30
22649;BME280;11491;41.942;24.220;2023-08-07T02:00:07;89467.91;;;13.90;85.61
22649;BME280;11491;41.942;24.220;2023-08-07T02:02:34;89473.28;;;13.90;85.32
22649;BME280;11491;41.942;24.220;2023-08-07T02:05:01;89467.13;;;13.93;85.61
22649;BME280;11491;41.942;24.220;2023-08-07T02:07:28;89465.25;;;13.97;85.11
22649;BME280;11491;41.942;24.220;2023-08-07T02:09:55;89476.41;;;13.99;84.45
22649;BME280;11491;41.942;24.220;2023-08-07T02:12:23;89471.84;;;14.04;82.93
22649;BME280;11491;41.942;24.220;2023-08-07T02:14:50;89479.41;;;13.91;83.65
22649;BME280;11491;41.942;24.220;2023-08-07T02:17:16;89482.50;;;13.89;83.96
22649;BME280;11491;41.942;24.220;2023-08-07T02:19:43;89477.06;;;13.82;84.25
22649;BME280;11491;41.942;24.220;2023-08-07T02:22:10;89475.50;;;13.81;84.23
22649;BME280;11491;41.942;24.220;2023-08-07T02:24:36;89481.59;;;13.74;84.10
22649;BME280;11491;41.942;24.220;2023-08-07T02:27:03;89488.50;;;13.72;84.11
22649;BME280;11491;41.942;24.220;2023-08-07T02:29:32;89483.00;;;13.57;84.39
22649;BME280;11491;41.942;24.220;2023-08-07T02:31:59;89477.69;;;13.65;83.24
22649;BME280;11491;41.942;24.220;2023-08-07T02:34:27;89478.34;;;13.51;83.83
22649;BME280;11491;41.942;24.220;2023-08-07T02:36:53;89483.69;;;13.47;83.64
22649;BME280;11491;41.942;24.220;2023-08-07T02:39:22;89487.41;;;13.35;84.25
22649;BME280;11491;41.942;24.220;2023-08-07T02:41:49;89482.75;;;13.29;84.74
22649;BME280;11491;41.942;24.220;2023-08-07T02:44:16;89481.09;;;13.21;85.59
22649;BME280;11491;41.942;24.220;2023-08-07T02:46:45;89472.19;;;13.09;85.48
22649;BME280;11491;41.942;24.220;2023-08-07T02:49:12;89474.53;;;13.14;85.54
22649;BME280;11491;41.942;24.220;2023-08-07T02:51:38;89475.72;;;13.17;84.52
22649;BME280;11491;41.942;24.220;2023-08-07T02:54:06;89484.94;;;13.20;84.97
22649;BME280;11491;41.942;24.220;2023-08-07T02:56:33;89481.91;;;13.25;84.75
22649;BME280;11491;41.942;24.220;2023-08-07T02:59:00;89479.16;;;13.18;84.34
22649;BME280;11491;41.942;24.220;2023-08-07T03:01:27;89486.03;;;13.15;83.33
22649;BME280;11491;41.942;24.220;2023-08-07T03:03:55;89490.16;;;13.05;83.94
22649;BME280;11491;41.942;24.220;2023-08-07T03:06:22;89496.34;;;13.09;84.74
22649;BME280;11491;41.942;24.220;2023-08-07T03:08:49;89480.94;;;13.03;83.67
22649;BME280;11491;41.942;24.220;2023-08-07T03:11:16;89494.78;;;13.08;83.69
22649;BME280;11491;41.942;24.220;2023-08-07T03:13:43;89494.03;;;13.11;83.66
22649;BME280;11491;41.942;24.220;2023-08-07T03:16:10;89495.13;;;13.03;82.71
22649;BME280;11491;41.942;24.220;2023-08-07T03:18:36;89493.84;;;12.90;82.95
22649;BME280;11491;41.942;24.220;2023-08-07T03:21:04;89497.56;;;12.82;83.17
22649;BME280;11491;41.942;24.220;2023-08-07T03:23:31;89491.41;;;12.81;83.87
22649;BME280;11491;41.942;24.220;2023-08-07T03:26:02;89497.56;;;12.82;83.26
22649;BME280;11491;41.942;24.220;2023-08-07T03:28:29;89504.47;;;12.83;83.44
22649;BME280;11491;41.942;24.220;2023-08-07T03:30:56;89508.22;;;12.75;84.43
22649;BME280;11491;41.942;24.220;2023-08-07T03:33:23;89512.75;;;12.70;84.35
22649;BME280;11491;41.942;24.220;2023-08-07T03:35:49;89515.09;;;12.72;84.56
22649;BME280;11491;41.942;24.220;2023-08-07T03:38:18;89518.97;;;12.75;84.44
22649;BME280;11491;41.942;24.220;2023-08-07T03:40:44;89486.59;;;12.60;83.90
22649;BME280;11491;41.942;24.220;2023-08-07T03:43:11;89515.16;;;12.79;82.94
22649;BME280;11491;41.942;24.220;2023-08-07T03:45:39;89518.13;;;12.70;83.67
22649;BME280;11491;41.942;24.220;2023-08-07T03:48:06;89523.31;;;12.56;83.66
22649;BME280;11491;41.942;24.220;2023-08-07T03:50:33;89521.13;;;12.65;83.75
22649;BME280;11491;41.942;24.220;2023-08-07T03:53:03;89524.59;;;12.66;83.53
22649;BME280;11491;41.942;24.220;2023-08-07T03:55:33;89524.31;;;12.75;82.96
22649;BME280;11491;41.942;24.220;2023-08-07T03:58:00;89518.88;;;12.67;82.80
22649;BME280;11491;41.942;24.220;2023-08-07T04:00:27;89524.03;;;12.53;83.66
22649;BME280;11491;41.942;24.220;2023-08-07T04:02:53;89530.13;;;12.50;83.85
22649;BME280;11491;41.942;24.220;2023-08-07T04:05:20;89533.13;;;12.45;84.62
22649;BME280;11491;41.942;24.220;2023-08-07T04:07:47;89535.50;;;12.50;85.24
22649;BME280;11491;41.942;24.220;2023-08-07T04:10:14;89528.66;;;12.56;85.05
22649;BME280;11491;41.942;24.220;2023-08-07T04:12:42;89534.16;;;12.67;85.46
22649;BME280;11491;41.942;24.220;2023-08-07T04:15:09;89544.13;;;12.66;85.43
22649;BME280;11491;41.942;24.220;2023-08-07T04:17:36;89545.81;;;12.78;85.54
22649;BME280;11491;41.942;24.220;2023-08-07T04:20:03;89529.88;;;12.92;85.27
22649;BME280;11491;41.942;24.220;2023-08-07T04:22:30;89544.66;;;13.09;84.82
22649;BME280;11491;41.942;24.220;2023-08-07T04:24:57;89547.47;;;13.24;84.23
22649;BME280;11491;41.942;24.220;2023-08-07T04:27:25;89547.97;;;13.33;83.21
22649;BME280;11491;41.942;24.220;2023-08-07T04:29:56;89553.56;;;13.54;81.28
22649;BME280;11491;41.942;24.220;2023-08-07T04:32:23;89552.91;;;13.65;80.81
22649;BME280;11491;41.942;24.220;2023-08-07T04:34:50;89559.88;;;13.73;80.98
22649;BME280;11491;41.942;24.220;2023-08-07T04:37:16;89558.44;;;13.86;81.76
22649;BME280;11491;41.942;24.220;2023-08-07T04:39:43;89560.09;;;13.98;81.64
22649;BME280;11491;41.942;24.220;2023-08-07T04:42:10;89551.72;;;14.07;81.15
22649;BME280;11491;41.942;24.220;2023-08-07T04:44:37;89527.00;;;13.90;80.29
22649;BME280;11491;41.942;24.220;2023-08-07T04:47:05;89553.34;;;14.22;79.33
22649;BME280;11491;41.942;24.220;2023-08-07T04:49:32;89549.56;;;14.30;78.34
22649;BME280;11491;41.942;24.220;2023-08-07T04:51:59;89554.66;;;14.42;78.10
22649;BME280;11491;41.942;24.220;2023-08-07T04:54:26;89558.16;;;14.50;77.85
22649;BME280;11491;41.942;24.220;2023-08-07T04:56:53;89550.59;;;14.70;77.61
22649;BME280;11491;41.942;24.220;2023-08-07T04:59:20;89561.81;;;14.79;77.23
22649;BME280;11491;41.942;24.220;2023-08-07T05:17:07;89450.84;;;15.25;74.34
22649;BME280;11491;41.942;24.220;2023-08-07T05:22:46;89550.25;;;16.42;74.70
22649;BME280;11491;41.942;24.220;2023-08-07T05:25:27;89556.78;;;16.58;75.31
22649;BME280;11491;41.942;24.220;2023-08-07T05:28:39;89458.63;;;15.95;75.80
22649;BME280;11491;41.942;24.220;2023-08-07T05:31:30;89459.34;;;16.35;75.80
22649;BME280;11491;41.942;24.220;2023-08-07T05:33:57;89537.81;;;17.01;75.59
22649;BME280;11491;41.942;24.220;2023-08-07T05:36:24;89556.22;;;17.35;75.05
22649;BME280;11491;41.942;24.220;2023-08-07T05:38:51;89563.88;;;17.48;75.39
22649;BME280;11491;41.942;24.220;2023-08-07T05:41:18;89554.91;;;17.65;74.90
22649;BME280;11491;41.942;24.220;2023-08-07T05:43:45;89486.78;;;17.32;73.51
22649;BME280;11491;41.942;24.220;2023-08-07T05:46:12;89562.84;;;18.01;73.75
22649;BME280;11491;41.942;24.220;2023-08-07T05:48:40;89551.19;;;18.11;72.29
22649;BME280;11491;41.942;24.220;2023-08-07T05:51:07;89462.97;;;17.69;72.02
22649;BME280;11491;41.942;24.220;2023-08-07T05:53:35;89559.41;;;18.45;70.83
22649;BME280;11491;41.942;24.220;2023-08-07T05:56:01;89563.91;;;18.63;70.39
22649;BME280;11491;41.942;24.220;2023-08-07T05:58:28;89495.03;;;18.26;70.35
22649;BME280;11491;41.942;24.220;2023-08-07T06:00:55;89557.50;;;18.91;69.40
22649;BME280;11491;41.942;24.220;2023-08-07T06:03:22;89556.59;;;19.05;66.84
22649;BME280;11491;41.942;24.220;2023-08-07T06:05:50;89555.59;;;19.26;64.96
22649;BME280;11491;41.942;24.220;2023-08-07T06:08:16;89548.19;;;19.30;64.23
22649;BME280;11491;41.942;24.220;2023-08-07T06:10:43;89525.44;;;19.24;65.02
22649;BME280;11491;41.942;24.220;2023-08-07T06:13:10;89490.72;;;19.11;64.81
22649;BME280;11491;41.942;24.220;2023-08-07T06:15:37;89552.78;;;19.67;63.54
22649;BME280;11491;41.942;24.220;2023-08-07T06:18:04;89556.72;;;19.63;64.63
22649;BME280;11491;41.942;24.220;2023-08-07T06:20:30;89552.63;;;19.47;65.82
22649;BME280;11491;41.942;24.220;2023-08-07T06:22:59;89557.97;;;19.54;66.33
22649;BME280;11491;41.942;24.220;2023-08-07T06:25:25;89531.94;;;19.61;64.82
22649;BME280;11491;41.942;24.220;2023-08-07T06:27:52;89490.19;;;19.54;64.66
22649;BME280;11491;41.942;24.220;2023-08-07T06:30:19;89521.56;;;19.86;64.96
22649;BME280;11491;41.942;24.220;2023-08-07T06:32:46;89551.59;;;20.26;62.53
22649;BME280;11491;41.942;24.220;2023-08-07T06:35:13;89554.88;;;20.41;62.85
22649;BME280;11491;41.942;24.220;2023-08-07T06:37:40;89553.25;;;20.47;60.68
22649;BME280;11491;41.942;24.220;2023-08-07T06:40:09;89544.72;;;20.45;64.20
22649;BME280;11491;41.942;24.220;2023-08-07T06:42:36;89547.47;;;20.69;64.07
22649;BME280;11491;41.942;24.220;2023-08-07T06:45:04;89554.28;;;20.80;62.21
22649;BME280;11491;41.942;24.220;2023-08-07T06:47:30;89561.06;;;20.92;62.49
22649;BME280;11491;41.942;24.220;2023-08-07T06:49:57;89564.06;;;20.98;62.94
22649;BME280;11491;41.942;24.220;2023-08-07T06:52:24;89562.75;;;21.06;62.41
22649;BME280;11491;41.942;24.220;2023-08-07T06:54:51;89572.09;;;21.05;63.10
22649;BME280;11491;41.942;24.220;2023-08-07T06:57:19;89571.50;;;21.17;61.89
22649;BME280;11491;41.942;24.220;2023-08-07T06:59:45;89576.19;;;21.37;62.24
22649;BME280;11491;41.942;24.220;2023-08-07T07:02:13;89562.19;;;21.58;58.99
22649;BME280;11491;41.942;24.220;2023-08-07T07:04:39;89566.50;;;21.76;58.62
22649;BME280;11491;41.942;24.220;2023-08-07T07:07:06;89564.00;;;21.85;58.17
22649;BME280;11491;41.942;24.220;2023-08-07T07:09:33;89564.47;;;22.00;57.12
22649;BME280;11491;41.942;24.220;2023-08-07T07:11:59;89568.81;;;22.13;57.80
22649;BME280;11491;41.942;24.220;2023-08-07T07:14:28;89565.47;;;22.26;58.68
22649;BME280;11491;41.942;24.220;2023-08-07T07:16:54;89553.06;;;22.25;59.47
22649;BME280;11491;41.942;24.220;2023-08-07T07:19:21;89553.25;;;22.50;57.80
22649;BME280;11491;41.942;24.220;2023-08-07T07:21:48;89554.13;;;22.47;57.73
22649;BME280;11491;41.942;24.220;2023-08-07T07:24:15;89553.03;;;22.61;55.64
22649;BME280;11491;41.942;24.220;2023-08-07T07:26:42;89555.66;;;22.81;56.72
22649;BME280;11491;41.942;24.220;2023-08-07T07:29:08;89554.81;;;22.84;53.58
22649;BME280;11491;41.942;24.220;2023-08-07T07:31:37;89553.94;;;22.87;52.98
22649;BME280;11491;41.942;24.220;2023-08-07T07:34:03;89559.06;;;23.02;52.96
22649;BME280;11491;41.942;24.220;2023-08-07T07:36:30;89565.97;;;23.06;52.93
22649;BME280;11491;41.942;24.220;2023-08-07T07:38:57;89567.06;;;22.92;53.02
22649;BME280;11491;41.942;24.220;2023-08-07T07:41:24;89564.34;;;22.76;54.24
22649;BME280;11491;41.942;24.220;2023-08-07T07:43:50;89571.31;;;22.77;54.60
22649;BME280;11491;41.942;24.220;2023-08-07T07:46:17;89511.19;;;22.19;55.45
22649;BME280;11491;41.942;24.220;2023-08-07T07:48:45;89577.97;;;22.60;55.89
22649;BME280;11491;41.942;24.220;2023-08-07T07:51:12;89579.31;;;22.68;54.33
22649;BME280;11491;41.942;24.220;2023-08-07T07:53:39;89576.25;;;22.66;55.51
22649;BME280;11491;41.942;24.220;2023-08-07T07:56:05;89570.47;;;22.80;55.90
22649;BME280;11491;41.942;24.220;2023-08-07T07:58:32;89565.44;;;22.95;55.42
22649;BME280;11491;41.942;24.220;2023-08-07T08:00:59;89572.00;;;23.14;56.77
22649;BME280;11491;41.942;24.220;2023-08-07T08:03:26;89564.66;;;22.94;54.47
22649;BME280;11491;41.942;24.220;2023-08-07T08:05:54;89571.44;;;23.06;55.25
22649;BME280;11491;41.942;24.220;2023-08-07T08:08:21;89572.38;;;22.99;54.82
22649;BME280;11491;41.942;24.220;2023-08-07T08:10:47;89566.72;;;22.90;54.97
22649;BME280;11491;41.942;24.220;2023-08-07T08:13:16;89573.25;;;22.93;55.97
22649;BME280;11491;41.942;24.220;2023-08-07T08:15:43;89529.44;;;22.71;57.43
22649;BME280;11491;41.942;24.220;2023-08-07T08:18:10;89576.59;;;23.17;55.10
22649;BME280;11491;41.942;24.220;2023-08-07T08:20:37;89587.84;;;23.19;55.26
22649;BME280;11491;41.942;24.220;2023-08-07T08:23:05;89574.50;;;23.37;55.55
22649;BME280;11491;41.942;24.220;2023-08-07T08:25:32;89572.75;;;23.60;54.96
22649;BME280;11491;41.942;24.220;2023-08-07T08:27:59;89576.31;;;23.28;54.57
22649;BME280;11491;41.942;24.220;2023-08-07T08:30:26;89578.50;;;23.49;55.02
22649;BME280;11491;41.942;24.220;2023-08-07T08:32:53;89579.44;;;23.42;52.27
22649;BME280;11491;41.942;24.220;2023-08-07T08:35:19;89579.78;;;23.44;56.05
22649;BME280;11491;41.942;24.220;2023-08-07T08:37:46;89579.44;;;23.42;56.56
22649;BME280;11491;41.942;24.220;2023-08-07T08:40:14;89555.59;;;23.30;53.41
22649;BME280;11491;41.942;24.220;2023-08-07T08:42:43;89581.50;;;23.38;53.63
22649;BME280;11491;41.942;24.220;2023-08-07T08:45:12;89573.34;;;23.22;56.04
22649;BME280;11491;41.942;24.220;2023-08-07T08:47:41;89572.28;;;23.49;54.96
22649;BME280;11491;41.942;24.220;2023-08-07T08:50:10;89563.22;;;23.52;52.60
22649;BME280;11491;41.942;24.220;2023-08-07T08:52:40;89576.72;;;23.42;54.43
22649;BME280;11491;41.942;24.220;2023-08-07T08:55:08;89581.97;;;23.50;53.82
22649;BME280;11491;41.942;24.220;2023-08-07T08:57:37;89578.06;;;23.51;53.45
22649;BME280;11491;41.942;24.220;2023-08-07T09:00:06;89565.16;;;23.38;56.46
22649;BME280;11491;41.942;24.220;2023-08-07T09:02:43;89562.19;;;23.62;55.12
22649;BME280;11491;41.942;24.220;2023-08-07T09:05:10;89513.88;;;23.33;52.71
22649;BME280;11491;41.942;24.220;2023-08-07T09:07:37;89580.28;;;23.56;53.49
22649;BME280;11491;41.942;24.220;2023-08-07T09:10:04;89554.84;;;23.75;57.08
22649;BME280;11491;41.942;24.220;2023-08-07T09:12:32;89511.69;;;23.70;52.45
22649;BME280;11491;41.942;24.220;2023-08-07T09:15:04;89568.88;;;24.03;52.33
22649;BME280;11491;41.942;24.220;2023-08-07T09:17:33;89544.66;;;24.05;50.77
22649;BME280;11491;41.942;24.220;2023-08-07T09:20:01;89566.75;;;24.49;53.08
22649;BME280;11491;41.942;24.220;2023-08-07T09:22:29;89557.25;;;24.79;48.89
22649;BME280;11491;41.942;24.220;2023-08-07T09:24:56;89550.22;;;24.91;49.49
22649;BME280;11491;41.942;24.220;2023-08-07T09:27:25;89452.91;;;24.46;51.03
22649;BME280;11491;41.942;24.220;2023-08-07T09:29:54;89536.28;;;25.24;48.96
22649;BME280;11491;41.942;24.220;2023-08-07T09:32:22;89531.72;;;25.21;44.34
22649;BME280;11491;41.942;24.220;2023-08-07T09:34:50;89552.16;;;25.16;47.52
22649;BME280;11491;41.942;24.220;2023-08-07T09:37:17;89550.28;;;25.26;45.01
22649;BME280;11491;41.942;24.220;2023-08-07T09:39:44;89531.53;;;25.02;46.99
22649;BME280;11491;41.942;24.220;2023-08-07T09:42:13;89502.56;;;24.92;47.30
22649;BME280;11491;41.942;24.220;2023-08-07T09:44:41;89546.59;;;25.54;47.57
22649;BME280;11491;41.942;24.220;2023-08-07T09:47:14;89558.34;;;25.77;46.59
22649;BME280;11491;41.942;24.220;2023-08-07T09:49:43;89550.16;;;25.99;46.61
22649;BME280;11491;41.942;24.220;2023-08-07T09:52:11;89545.44;;;25.99;45.56
22649;BME280;11491;41.942;24.220;2023-08-07T09:54:39;89509.25;;;26.05;46.39
22649;BME280;11491;41.942;24.220;2023-08-07T09:57:06;89512.50;;;26.12;46.01
22649;BME280;11491;41.942;24.220;2023-08-07T09:59:34;89516.69;;;26.35;44.70
22649;BME280;11491;41.942;24.220;2023-08-07T10:02:02;89513.44;;;26.50;47.87
22649;BME280;11491;41.942;24.220;2023-08-07T10:04:29;89531.41;;;27.00;43.20
22649;BME280;11491;41.942;24.220;2023-08-07T10:06:58;89523.09;;;27.13;46.08
22649;BME280;11491;41.942;24.220;2023-08-07T10:09:26;89536.88;;;27.59;43.79
22649;BME280;11491;41.942;24.220;2023-08-07T10:11:54;89532.28;;;27.75;41.59
22649;BME280;11491;41.942;24.220;2023-08-07T10:14:21;89529.25;;;27.63;42.57
22649;BME280;11491;41.942;24.220;2023-08-07T10:16:49;89530.75;;;27.55;40.94
22649;BME280;11491;41.942;24.220;2023-08-07T10:19:16;89523.28;;;27.28;41.48
22649;BME280;11491;41.942;24.220;2023-08-07T10:21:43;89488.78;;;26.99;43.08
22649;BME280;11491;41.942;24.220;2023-08-07T10:24:13;89518.50;;;27.10;41.27
22649;BME280;11491;41.942;24.220;2023-08-07T10:26:44;89525.25;;;26.78;44.42
22649;BME280;11491;41.942;24.220;2023-08-07T10:29:15;89524.56;;;26.96;43.84
22649;BME280;11491;41.942;24.220;2023-08-07T10:31:44;89514.81;;;26.95;42.49
22649;BME280;11491;41.942;24.220;2023-08-07T10:34:11;89518.94;;;26.99;40.62
22649;BME280;11491;41.942;24.220;2023-08-07T10:36:39;89506.63;;;27.13;43.02
22649;BME280;11491;41.942;24.220;2023-08-07T10:39:06;89527.41;;;27.51;41.23
22649;BME280;11491;41.942;24.220;2023-08-07T10:41:39;89499.97;;;27.42;40.96
22649;BME280;11491;41.942;24.220;2023-08-07T10:44:17;89520.41;;;27.50;41.55
22649;BME280;11491;41.942;24.220;2023-08-07T10:46:48;89513.69;;;27.51;39.65
22649;BME280;11491;41.942;24.220;2023-08-07T10:49:31;89514.31;;;27.92;40.60
22649;BME280;11491;41.942;24.220;2023-08-07T10:51:58;89511.88;;;28.03;41.74
22649;BME280;11491;41.942;24.220;2023-08-07T10:54:25;89508.75;;;28.29;38.76
22649;BME280;11491;41.942;24.220;2023-08-07T10:56:54;89468.22;;;28.05;39.66
22649;BME280;11491;41.942;24.220;2023-08-07T10:59:21;89508.72;;;28.47;41.54
22649;BME280;11491;41.942;24.220;2023-08-07T11:01:51;89489.81;;;28.31;37.81
22649;BME280;11491;41.942;24.220;2023-08-07T11:04:18;89494.69;;;28.45;38.99
22649;BME280;11491;41.942;24.220;2023-08-07T11:06:47;89508.97;;;28.59;39.02
22649;BME280;11491;41.942;24.220;2023-08-07T11:09:14;89499.03;;;28.70;39.16
22649;BME280;11491;41.942;24.220;2023-08-07T11:11:42;89501.88;;;28.76;38.78
22649;BME280;11491;41.942;24.220;2023-08-07T11:14:12;89387.34;;;28.06;38.78
22649;BME280;11491;41.942;24.220;2023-08-07T11:16:40;89420.66;;;28.32;41.12
22649;BME280;11491;41.942;24.220;2023-08-07T11:19:08;89485.44;;;29.24;38.21
22649;BME280;11491;41.942;24.220;2023-08-07T11:21:35;89501.81;;;28.94;39.31
22649;BME280;11491;41.942;24.220;2023-08-07T11:24:02;89481.91;;;28.66;39.60
22649;BME280;11491;41.942;24.220;2023-08-07T11:26:29;89497.31;;;28.73;39.31
22649;BME280;11491;41.942;24.220;2023-08-07T11:28:56;89490.03;;;28.61;37.82
22649;BME280;11491;41.942;24.220;2023-08-07T11:31:27;89491.19;;;28.78;38.10
22649;BME280;11491;41.942;24.220;2023-08-07T11:33:55;89488.19;;;29.00;39.58
22649;BME280;11491;41.942;24.220;2023-08-07T11:36:23;89466.06;;;29.18;38.10
22649;BME280;11491;41.942;24.220;2023-08-07T11:38:50;89389.56;;;28.60;38.12
22649;BME280;11491;41.942;24.220;2023-08-07T11:41:17;89467.47;;;29.14;37.23
22649;BME280;11491;41.942;24.220;2023-08-07T11:43:45;89406.09;;;28.74;39.39
22649;BME280;11491;41.942;24.220;2023-08-07T11:46:14;89439.91;;;29.23;36.28
22649;BME280;11491;41.942;24.220;2023-08-07T11:48:43;89367.09;;;28.85;37.45
22649;BME280;11491;41.942;24.220;2023-08-07T11:51:10;89480.97;;;29.51;38.38
22649;BME280;11491;41.942;24.220;2023-08-07T11:53:39;89474.09;;;29.31;37.79
22649;BME280;11491;41.942;24.220;2023-08-07T11:56:07;89483.28;;;29.52;38.22
22649;BME280;11491;41.942;24.220;2023-08-07T11:58:36;89478.91;;;29.60;38.01
22649;BME280;11491;41.942;24.220;2023-08-07T12:01:06;89488.97;;;29.63;37.64
22649;BME280;11491;41.942;24.220;2023-08-07T12:03:37;89458.47;;;29.37;38.06
22649;BME280;11491;41.942;24.220;2023-08-07T12:06:06;89474.53;;;29.54;38.25
22649;BME280;11491;41.942;24.220;2023-08-07T12:08:35;89468.00;;;29.27;38.00
22649;BME280;11491;41.942;24.220;2023-08-07T12:11:03;89474.44;;;29.00;37.64
22649;BME280;11491;41.942;24.220;2023-08-07T12:13:31;89467.22;;;29.12;37.79
22649;BME280;11491;41.942;24.220;2023-08-07T12:16:01;89462.19;;;29.01;36.68
22649;BME280;11491;41.942;24.220;2023-08-07T12:18:29;89467.44;;;29.62;35.73
22649;BME280;11491;41.942;24.220;2023-08-07T12:21:00;89460.97;;;29.89;35.05
22649;BME280;11491;41.942;24.220;2023-08-07T12:23:29;89412.31;;;29.71;34.81
22649;BME280;11491;41.942;24.220;2023-08-07T12:25:58;89454.69;;;30.18;34.47
22649;BME280;11491;41.942;24.220;2023-08-07T12:28:25;89459.66;;;30.44;34.84
22649;BME280;11491;41.942;24.220;2023-08-07T12:30:52;89454.81;;;30.54;34.19
22649;BME280;11491;41.942;24.220;2023-08-07T12:33:19;89455.59;;;30.24;34.00
22649;BME280;11491;41.942;24.220;2023-08-07T12:35:46;89459.63;;;29.99;35.85
22649;BME280;11491;41.942;24.220;2023-08-07T12:38:12;89468.16;;;29.72;33.28
22649;BME280;11491;41.942;24.220;2023-08-07T12:40:41;89475.00;;;29.76;35.26
22649;BME280;11491;41.942;24.220;2023-08-07T12:43:08;89427.06;;;29.59;34.24
22649;BME280;11491;41.942;24.220;2023-08-07T12:45:35;89472.75;;;29.90;34.90
22649;BME280;11491;41.942;24.220;2023-08-07T12:48:02;89474.63;;;29.98;33.63
22649;BME280;11491;41.942;24.220;2023-08-07T12:50:29;89475.44;;;30.29;34.67
22649;BME280;11491;41.942;24.220;2023-08-07T12:52:56;89468.19;;;29.87;33.43
22649;BME280;11491;41.942;24.220;2023-08-07T12:55:24;89444.78;;;29.43;34.23
22649;BME280;11491;41.942;24.220;2023-08-07T12:57:53;89396.72;;;28.90;34.26
22649;BME280;11491;41.942;24.220;2023-08-07T13:00:21;89471.28;;;29.40;33.12
22649;BME280;11491;41.942;24.220;2023-08-07T13:02:50;89473.25;;;29.64;34.03
22649;BME280;11491;41.942;24.220;2023-08-07T13:05:17;89411.34;;;29.59;34.48
22649;BME280;11491;41.942;24.220;2023-08-07T13:07:45;89428.25;;;29.67;34.17
22649;BME280;11491;41.942;24.220;2023-08-07T13:10:13;89460.59;;;29.96;35.07
22649;BME280;11491;41.942;24.220;2023-08-07T13:12:42;89470.56;;;29.94;33.26